createdAt,value
2023-05-13T00:01:51.405Z,101333.09
2023-05-13T00:04:18.773Z,101325.44
2023-05-13T00:06:46.000Z,101331.81
2023-05-13T00:09:13.190Z,101324.91
2023-05-13T00:11:40.390Z,101326.78
2023-05-13T00:14:29.387Z,101330.56
2023-05-13T00:16:58.715Z,101328.97
2023-05-13T00:19:26.125Z,101332.75
2023-05-13T00:21:53.297Z,101335.69
2023-05-13T00:24:20.657Z,101336.81
2023-05-13T00:26:47.985Z,101334.47
2023-05-13T00:29:15.308Z,101337.31
2023-05-13T00:31:42.528Z,101336.66
2023-05-13T00:34:09.854Z,101334.19
2023-05-13T00:37:33.666Z,101335.44
2023-05-13T00:40:00.877Z,101342.59
2023-05-13T00:42:28.042Z,101339.09
2023-05-13T00:44:55.293Z,101339.22
2023-05-13T00:47:22.628Z,101340.16
2023-05-13T00:49:49.925Z,101344.63
2023-05-13T00:52:17.093Z,101348.97
2023-05-13T01:02:56.428Z,101349.69
2023-05-13T01:05:29.842Z,101349.81
2023-05-13T01:08:20.191Z,101356.91
2023-05-13T01:10:52.941Z,101349.91
2023-05-13T01:13:25.031Z,101352.63
2023-05-13T01:16:20.234Z,101357.06
2023-05-13T01:18:54.255Z,101362.38
2023-05-13T01:21:35.896Z,101358.97
2023-05-13T01:24:03.172Z,101366.38
2023-05-13T01:26:30.523Z,101363.88
2023-05-13T01:28:57.664Z,101373.72
2023-05-13T01:31:25.618Z,101371.16
2023-05-13T01:33:53.265Z,101375.72
2023-05-13T01:36:20.860Z,101369.75
2023-05-13T01:38:48.902Z,101372.56
2023-05-13T01:41:16.238Z,101377.97
2023-05-13T01:43:43.398Z,101380.72
2023-05-13T01:46:13.775Z,101386.28
2023-05-13T01:48:41.141Z,101376.72
2023-05-13T01:51:09.132Z,101378.69
2023-05-13T01:53:36.592Z,101380.66
2023-05-13T01:56:03.959Z,101380.00
2023-05-13T01:58:31.207Z,101374.03
2023-05-13T02:00:58.465Z,101377.72
2023-05-13T02:03:26.103Z,101374.31
2023-05-13T02:05:53.434Z,101384.22
2023-05-13T02:08:22.133Z,101379.88
2023-05-13T02:10:59.344Z,101370.31
2023-05-13T02:13:26.874Z,101382.78
2023-05-13T02:16:22.837Z,101381.28
2023-05-13T02:18:50.270Z,101381.44
2023-05-13T02:21:17.528Z,101379.75
2023-05-13T02:23:44.725Z,101378.22
2023-05-13T02:26:11.960Z,101377.69
2023-05-13T02:28:39.230Z,101379.56
2023-05-13T02:31:06.754Z,101378.81
2023-05-13T02:33:34.009Z,101385.91
2023-05-13T02:36:01.287Z,101387.75
2023-05-13T02:38:28.513Z,101381.78
2023-05-13T02:40:55.808Z,101382.63
2023-05-13T02:43:24.918Z,101386.16
2023-05-13T02:45:52.179Z,101386.81
2023-05-13T02:48:19.686Z,101389.44
2023-05-13T02:50:47.151Z,101388.44
2023-05-13T02:53:14.355Z,101386.66
2023-05-13T02:55:41.498Z,101385.63
2023-05-13T02:58:09.454Z,101383.00
2023-05-13T03:00:36.639Z,101392.63
2023-05-13T03:03:04.087Z,101395.25
2023-05-13T03:05:31.505Z,101388.19
2023-05-13T03:07:58.705Z,101389.97
2023-05-13T03:10:25.939Z,101397.06
2023-05-13T03:12:53.297Z,101399.88
2023-05-13T03:15:32.438Z,101402.78
2023-05-13T03:18:00.738Z,101399.44
2023-05-13T03:20:27.947Z,101402.28
2023-05-13T03:22:55.241Z,101399.88
2023-05-13T03:25:22.371Z,101402.78
2023-05-13T03:27:49.705Z,101403.91
2023-05-13T03:30:16.875Z,101407.56
2023-05-13T03:32:44.072Z,101414.75
2023-05-13T03:35:11.353Z,101407.94
2023-05-13T03:37:38.547Z,101415.16
2023-05-13T03:40:06.638Z,101408.34
2023-05-13T03:42:33.849Z,101416.28
2023-05-13T03:45:01.082Z,101412.94
2023-05-13T03:47:28.536Z,101412.19
2023-05-13T03:49:55.809Z,101415.75
2023-05-13T03:52:23.193Z,101408.69
2023-05-13T03:54:50.562Z,101409.59
2023-05-13T03:57:17.706Z,101415.75
2023-05-13T03:59:44.876Z,101420.16
2023-05-13T04:02:12.171Z,101422.75
2023-05-13T04:04:39.389Z,101424.53
2023-05-13T04:07:06.746Z,101435.19
2023-05-13T04:09:33.951Z,101435.13
2023-05-13T04:12:01.273Z,101440.31
2023-05-13T04:14:28.469Z,101445.69
2023-05-13T04:16:55.785Z,101449.06
2023-05-13T04:19:22.947Z,101438.41
2023-05-13T04:21:50.260Z,101453.41
2023-05-13T04:24:17.483Z,101452.47
2023-05-13T04:26:44.791Z,101447.88
2023-05-13T04:29:12.134Z,101456.50
2023-05-13T04:31:39.332Z,101462.31
2023-05-13T04:34:06.585Z,101459.41
2023-05-13T04:36:33.794Z,101465.28
2023-05-13T04:39:01.031Z,101458.91
2023-05-13T04:41:28.317Z,101461.19
2023-05-13T04:43:55.684Z,101461.78
2023-05-13T04:46:23.008Z,101470.41
2023-05-13T04:48:50.205Z,101472.88
2023-05-13T04:51:17.925Z,101472.72
2023-05-13T04:53:45.671Z,101480.31
2023-05-13T04:56:12.891Z,101469.56
2023-05-13T04:58:40.154Z,101477.22
2023-05-13T05:01:07.521Z,101481.41
2023-05-13T05:03:34.838Z,101476.78
2023-05-13T05:06:02.048Z,101488.91
2023-05-13T05:08:29.424Z,101485.16
2023-05-13T05:10:56.678Z,101491.03
2023-05-13T05:13:23.851Z,101482.91
2023-05-13T05:15:51.258Z,101482.56
2023-05-13T05:18:18.457Z,101483.03
2023-05-13T05:20:45.765Z,101481.75
2023-05-13T05:23:13.010Z,101490.09
2023-05-13T05:25:40.410Z,101494.94
2023-05-13T05:28:09.350Z,101497.13
2023-05-13T05:30:39.942Z,101496.56
2023-05-13T05:33:08.122Z,101492.50
2023-05-13T05:35:38.587Z,101495.44
2023-05-13T05:38:07.364Z,101496.78
2023-05-13T05:40:40.976Z,101500.78
2023-05-13T05:43:08.438Z,101506.47
2023-05-13T05:45:36.190Z,101505.06
2023-05-13T05:48:03.776Z,101505.44
2023-05-13T05:50:31.165Z,101508.38
2023-05-13T05:52:59.322Z,101506.09
2023-05-13T05:56:29.696Z,101510.63
2023-05-13T05:58:56.910Z,101505.41
2023-05-13T06:01:24.183Z,101505.84
2023-05-13T06:03:53.953Z,101515.75
2023-05-13T06:06:22.134Z,101516.88
2023-05-13T06:08:49.316Z,101517.25
2023-05-13T06:11:16.644Z,101516.63
2023-05-13T06:13:44.115Z,101520.41
2023-05-13T06:16:11.351Z,101519.03
2023-05-13T06:18:38.655Z,101516.72
2023-05-13T06:21:05.968Z,101522.50
2023-05-13T06:23:33.164Z,101510.47
2023-05-13T06:26:00.540Z,101515.81
2023-05-13T06:28:27.684Z,101513.69
2023-05-13T06:30:54.928Z,101512.97
2023-05-13T06:33:22.337Z,101514.25
2023-05-13T06:35:49.770Z,101515.28
2023-05-13T06:38:19.752Z,101511.78
2023-05-13T06:40:46.939Z,101511.66
2023-05-13T06:43:18.280Z,101504.88
2023-05-13T06:45:45.715Z,101505.84
2023-05-13T06:48:13.621Z,101500.50
2023-05-13T06:50:41.047Z,101499.81
2023-05-13T06:53:09.677Z,101503.72
2023-05-13T06:55:41.735Z,101504.00
2023-05-13T06:58:09.448Z,101500.69
2023-05-13T07:00:38.089Z,101499.91
2023-05-13T07:03:05.874Z,101500.06
2023-05-13T07:05:34.174Z,101494.06
2023-05-13T07:08:06.497Z,101497.34
2023-05-13T07:10:34.375Z,101489.75
2023-05-13T07:13:02.467Z,101488.72
2023-05-13T07:15:29.905Z,101493.13
2023-05-13T07:17:57.098Z,101494.69
2023-05-13T07:20:25.548Z,101485.97
2023-05-13T07:22:52.848Z,101481.66
2023-05-13T07:25:20.048Z,101481.66
2023-05-13T07:27:47.926Z,101471.72
2023-05-13T07:30:15.372Z,101471.47
2023-05-13T07:32:42.606Z,101478.88
2023-05-13T07:35:10.501Z,101480.69
2023-05-13T07:37:37.701Z,101477.22
2023-05-13T07:40:08.452Z,101468.94
2023-05-13T07:42:37.035Z,101477.19
2023-05-13T07:45:05.643Z,101470.84
2023-05-13T07:47:33.673Z,101468.53
2023-05-13T07:50:00.894Z,101476.88
2023-05-13T07:52:28.171Z,101472.03
2023-05-13T07:54:55.516Z,101464.34
2023-05-13T07:57:22.774Z,101465.44
2023-05-13T07:59:49.976Z,101459.94
2023-05-13T08:02:17.256Z,101463.06
2023-05-13T08:04:44.531Z,101471.31
2023-05-13T08:07:11.819Z,101476.66
2023-05-13T08:09:39.140Z,101470.91
2023-05-13T08:12:06.620Z,101469.78
2023-05-13T08:14:33.830Z,101457.88
2023-05-13T08:17:01.045Z,101473.53
2023-05-13T08:19:28.324Z,101469.88
2023-05-13T08:21:55.666Z,101467.69
2023-05-13T08:24:22.897Z,101476.25
2023-05-13T08:26:50.221Z,101461.22
2023-05-13T08:29:17.552Z,101468.72
2023-05-13T08:31:44.769Z,101463.44
2023-05-13T08:34:12.015Z,101471.16
2023-05-13T08:36:40.408Z,101472.75
2023-05-13T08:39:08.471Z,101481.06
2023-05-13T08:41:36.334Z,101471.69
2023-05-13T08:44:07.691Z,101479.78
2023-05-13T08:46:41.235Z,101475.72
2023-05-13T08:49:09.654Z,101472.38
2023-05-13T08:51:37.260Z,101479.03
2023-05-13T08:54:04.961Z,101484.38
2023-05-13T08:56:32.336Z,101483.44
2023-05-13T08:58:59.584Z,101488.38
2023-05-13T09:01:27.454Z,101484.19
2023-05-13T09:04:00.000Z,101480.84
2023-05-13T09:06:27.229Z,101479.13
2023-05-13T09:08:55.251Z,101489.00
2023-05-13T09:11:23.205Z,101479.31
2023-05-13T09:13:58.361Z,101456.22
2023-05-13T09:16:27.521Z,101475.13
2023-05-13T09:18:59.936Z,101467.38
2023-05-13T09:21:36.002Z,101467.97
2023-05-13T09:24:18.036Z,101467.47
2023-05-13T09:26:46.372Z,101467.31
2023-05-13T09:29:23.891Z,101458.31
2023-05-13T09:31:56.124Z,101453.06
2023-05-13T09:34:34.627Z,101461.25
2023-05-13T09:37:06.525Z,101451.09
2023-05-13T09:39:38.761Z,101460.41
2023-05-13T09:42:06.348Z,101468.19
2023-05-13T09:44:34.165Z,101469.44
2023-05-13T09:47:02.739Z,101452.47
2023-05-13T09:49:31.734Z,101453.19
2023-05-13T09:51:59.040Z,101452.16
2023-05-13T09:54:27.318Z,101447.50
2023-05-13T09:59:25.975Z,101452.34
2023-05-13T10:01:54.950Z,101438.81
2023-05-13T10:04:23.190Z,101444.09
2023-05-13T10:06:50.752Z,101437.19
2023-05-13T10:09:18.452Z,101444.69
2023-05-13T10:11:47.758Z,101449.34
2023-05-13T10:14:15.228Z,101441.69
2023-05-13T10:16:43.170Z,101454.50
2023-05-13T10:19:10.833Z,101438.19
2023-05-13T10:21:38.649Z,101427.91
2023-05-13T10:24:07.049Z,101434.28
2023-05-13T10:26:34.599Z,101446.47
2023-05-13T10:29:02.581Z,101440.19
2023-05-13T10:31:29.947Z,101439.88
2023-05-13T10:33:57.195Z,101443.34
2023-05-13T10:36:34.893Z,101436.91
2023-05-13T10:39:10.970Z,101443.50
2023-05-13T10:42:08.871Z,101441.09
2023-05-13T10:44:36.367Z,101435.59
2023-05-13T10:47:03.707Z,101426.59
2023-05-13T10:49:35.005Z,101432.91
2023-05-13T10:52:13.504Z,101441.25
2023-05-13T10:54:42.186Z,101438.75
2023-05-13T10:57:09.720Z,101440.00
2023-05-13T10:59:38.866Z,101425.75
2023-05-13T11:02:22.098Z,101435.84
2023-05-13T11:05:00.284Z,101418.44
2023-05-13T11:07:30.746Z,101431.28
2023-05-13T11:09:59.669Z,101425.78
2023-05-13T11:12:26.901Z,101438.81
2023-05-13T11:14:57.187Z,101430.28
2023-05-13T11:17:24.354Z,101427.34
2023-05-13T11:19:53.265Z,101425.75
2023-05-13T11:22:22.422Z,101431.16
2023-05-13T11:25:22.123Z,101420.63
2023-05-13T11:27:49.269Z,101418.09
2023-05-13T11:30:24.391Z,101426.00
2023-05-13T11:32:52.689Z,101426.00
2023-05-13T11:35:20.952Z,101416.22
2023-05-13T11:37:49.246Z,101410.19
2023-05-13T11:40:30.562Z,101427.38
2023-05-13T11:42:58.695Z,101431.47
2023-05-13T11:45:26.941Z,101420.19
2023-05-13T11:47:55.014Z,101409.59
2023-05-13T11:50:29.883Z,101413.31
2023-05-13T11:52:58.709Z,101409.59
2023-05-13T11:55:34.545Z,101413.63
2023-05-13T11:58:02.463Z,101412.09
2023-05-13T12:00:35.067Z,101406.38
2023-05-13T12:03:10.235Z,101411.44
2023-05-13T12:05:38.972Z,101400.09
2023-05-13T12:08:08.028Z,101400.72
2023-05-13T12:10:35.542Z,101406.66
2023-05-13T12:13:02.847Z,101397.38
2023-05-13T12:15:30.722Z,101401.03
2023-05-13T12:17:58.107Z,101421.38
2023-05-13T12:20:25.527Z,101410.78
2023-05-13T12:22:54.733Z,101410.28
2023-05-13T12:25:39.792Z,101410.38
2023-05-13T12:28:09.249Z,101408.09
2023-05-13T12:30:37.962Z,101419.94
2023-05-13T12:33:05.451Z,101421.00
2023-05-13T12:35:33.409Z,101419.50
2023-05-13T12:38:04.610Z,101414.63
2023-05-13T12:40:32.429Z,101408.88
2023-05-13T12:43:00.576Z,101394.56
2023-05-13T12:45:32.457Z,101413.97
2023-05-13T12:48:00.752Z,101412.13
2023-05-13T12:50:28.166Z,101405.63
2023-05-13T12:52:57.659Z,101398.84
2023-05-13T12:55:27.207Z,101403.13
2023-05-13T12:58:01.033Z,101392.09
2023-05-13T13:04:46.249Z,101403.97
2023-05-13T13:07:14.742Z,101407.94
2023-05-13T13:09:42.037Z,101401.66
2023-05-13T13:12:09.211Z,101388.66
2023-05-13T13:14:36.359Z,101390.63
2023-05-13T13:17:03.604Z,101398.16
2023-05-13T13:19:31.207Z,101391.97
2023-05-13T13:21:58.538Z,101398.63
2023-05-13T13:24:25.773Z,101397.84
2023-05-13T13:26:54.486Z,101391.38
2023-05-13T13:29:22.144Z,101390.38
2023-05-13T13:31:49.587Z,101397.31
2023-05-13T13:34:16.799Z,101401.44
2023-05-13T13:36:43.968Z,101400.50
2023-05-13T13:39:11.116Z,101393.59
2023-05-13T13:41:38.276Z,101397.50
2023-05-13T13:44:05.461Z,101404.75
2023-05-13T13:46:32.717Z,101393.78
2023-05-13T13:49:00.897Z,101385.34
2023-05-13T13:51:29.478Z,101378.34
2023-05-13T13:53:56.569Z,101389.13
2023-05-13T13:56:24.306Z,101374.84
2023-05-13T13:58:51.488Z,101384.63
2023-05-13T14:01:19.611Z,101377.97
2023-05-13T14:03:50.385Z,101382.31
2023-05-13T14:06:17.696Z,101368.47
2023-05-13T14:08:44.941Z,101356.94
2023-05-13T14:11:12.125Z,101359.13
2023-05-13T14:13:39.393Z,101360.63
2023-05-13T14:16:06.752Z,101370.00
2023-05-13T14:18:33.935Z,101369.06
2023-05-13T14:21:01.657Z,101362.53
2023-05-13T14:23:28.870Z,101358.78
2023-05-13T14:25:56.069Z,101353.94
2023-05-13T14:28:25.048Z,101357.44
2023-05-13T14:30:52.496Z,101354.75
2023-05-13T14:33:19.665Z,101349.66
2023-05-13T14:35:46.835Z,101353.84
2023-05-13T14:38:14.014Z,101367.50
2023-05-13T14:40:41.400Z,101369.31
2023-05-13T14:43:08.573Z,101363.56
2023-05-13T14:45:36.302Z,101368.94
2023-05-13T14:48:03.675Z,101366.63
2023-05-13T14:50:30.870Z,101363.88
2023-05-13T14:52:58.011Z,101367.88
2023-05-13T14:55:25.225Z,101367.81
2023-05-13T14:57:52.425Z,101353.94
2023-05-13T15:00:19.822Z,101361.03
2023-05-13T15:02:47.216Z,101362.47
2023-05-13T15:05:14.579Z,101361.13
2023-05-13T15:07:41.933Z,101363.41
2023-05-13T15:10:09.526Z,101366.56
2023-05-13T15:12:36.810Z,101361.41
2023-05-13T15:15:04.483Z,101356.09
2023-05-13T15:17:31.676Z,101364.84
2023-05-13T15:19:58.808Z,101365.75
2023-05-13T15:22:26.017Z,101363.72
2023-05-13T15:24:53.245Z,101360.28
2023-05-13T15:27:20.498Z,101359.69
2023-05-13T15:29:47.703Z,101354.81
2023-05-13T15:32:14.809Z,101367.53
2023-05-13T15:34:41.967Z,101360.75
2023-05-13T15:37:09.121Z,101363.88
2023-05-13T15:39:36.337Z,101354.41
2023-05-13T15:42:03.683Z,101362.53
2023-05-13T15:44:30.881Z,101346.81
2023-05-13T15:46:58.106Z,101324.28
2023-05-13T15:49:25.399Z,101332.19
2023-05-13T15:51:54.436Z,101343.41
2023-05-13T15:54:21.680Z,101326.97
2023-05-13T15:56:48.835Z,101324.81
2023-05-13T15:59:16.079Z,101324.19
2023-05-13T16:01:43.323Z,101334.25
2023-05-13T16:04:10.672Z,101332.56
2023-05-13T16:06:38.404Z,101342.81
2023-05-13T16:09:05.634Z,101351.66
2023-05-13T16:11:32.998Z,101345.00
2023-05-13T16:14:00.709Z,101335.25
2023-05-13T16:16:28.276Z,101349.63
2023-05-13T16:18:55.645Z,101359.47
2023-05-13T16:21:23.001Z,101357.91
2023-05-13T16:23:51.141Z,101359.03
2023-05-13T16:26:18.517Z,101366.31
2023-05-13T16:28:46.119Z,101375.41
2023-05-13T16:31:13.993Z,101375.97
2023-05-13T16:33:41.600Z,101393.81
2023-05-13T16:36:10.717Z,101373.16
2023-05-13T16:38:41.321Z,101384.47
2023-05-13T16:41:08.708Z,101384.47
2023-05-13T16:43:36.137Z,101388.06
2023-05-13T16:46:03.603Z,101382.47
2023-05-13T16:48:31.233Z,101384.53
2023-05-13T16:50:58.613Z,101395.69
2023-05-13T16:53:26.298Z,101393.56
2023-05-13T16:55:53.813Z,101400.19
2023-05-13T16:58:21.294Z,101391.56
2023-05-13T17:00:48.523Z,101388.22
2023-05-13T17:03:16.297Z,101388.66
2023-05-13T17:05:43.947Z,101382.16
2023-05-13T17:08:12.363Z,101373.28
2023-05-13T17:10:39.860Z,101379.75
2023-05-13T17:13:07.478Z,101380.63
2023-05-13T17:15:34.894Z,101376.06
2023-05-13T17:18:02.532Z,101372.41
2023-05-13T17:20:30.121Z,101372.41
2023-05-13T17:22:57.768Z,101372.97
2023-05-13T17:25:24.898Z,101369.72
2023-05-13T17:27:52.182Z,101372.56
2023-05-13T17:30:19.498Z,101381.22
2023-05-13T17:32:47.153Z,101385.97
2023-05-13T17:35:15.145Z,101386.03
2023-05-13T17:37:42.589Z,101386.72
2023-05-13T17:40:10.090Z,101389.19
2023-05-13T17:42:37.249Z,101389.16
2023-05-13T17:45:04.769Z,101388.97
2023-05-13T17:47:32.320Z,101390.13
2023-05-13T17:49:59.556Z,101401.00
2023-05-13T17:52:26.811Z,101398.38
2023-05-13T17:54:53.948Z,101401.09
2023-05-13T17:57:21.302Z,101397.25
2023-05-13T17:59:48.459Z,101404.88
2023-05-13T18:02:15.717Z,101403.56
2023-05-13T18:04:43.059Z,101409.03
2023-05-13T18:07:10.262Z,101406.88
2023-05-13T18:09:37.376Z,101398.50
2023-05-13T18:12:04.864Z,101402.25
2023-05-13T18:15:08.805Z,101402.88
2023-05-13T18:17:36.032Z,101402.03
2023-05-13T18:20:03.529Z,101409.22
2023-05-13T18:22:30.769Z,101412.09
2023-05-13T18:24:57.951Z,101408.94
2023-05-13T18:27:25.108Z,101412.34
2023-05-13T18:29:52.262Z,101407.72
2023-05-13T18:32:19.442Z,101410.84
2023-05-13T18:34:46.698Z,101410.47
2023-05-13T18:37:15.117Z,101405.69
2023-05-13T18:39:45.685Z,101414.38
2023-05-13T18:42:13.062Z,101413.19
2023-05-13T18:44:40.816Z,101410.13
2023-05-13T18:47:08.102Z,101406.34
2023-05-13T18:49:35.967Z,101412.13
2023-05-13T18:52:03.403Z,101411.72
2023-05-13T18:54:33.597Z,101411.34
2023-05-13T18:57:01.152Z,101414.44
2023-05-13T18:59:28.307Z,101416.72
2023-05-13T19:01:56.216Z,101413.66
2023-05-13T19:04:23.885Z,101418.56
2023-05-13T19:06:52.220Z,101417.22
2023-05-13T19:09:21.476Z,101426.38
2023-05-13T19:11:48.776Z,101425.97
2023-05-13T19:14:15.882Z,101428.09
2023-05-13T19:16:43.166Z,101426.00
2023-05-13T19:19:10.417Z,101421.94
2023-05-13T19:21:37.731Z,101430.34
2023-05-13T19:24:05.327Z,101429.97
2023-05-13T19:26:32.519Z,101421.44
2023-05-13T19:28:59.832Z,101419.00
2023-05-13T19:31:27.506Z,101427.41
2023-05-13T19:33:54.981Z,101425.91
2023-05-13T19:36:25.995Z,101434.31
2023-05-13T19:38:54.761Z,101431.88
2023-05-13T19:41:22.450Z,101432.09
2023-05-13T19:43:50.756Z,101434.13
2023-05-13T19:46:18.141Z,101426.47
2023-05-13T19:48:47.883Z,101438.38
2023-05-13T19:51:15.018Z,101433.47
2023-05-13T19:53:42.592Z,101429.31
2023-05-13T19:56:09.793Z,101428.59
2023-05-13T19:58:36.973Z,101430.72
2023-05-13T20:01:04.082Z,101435.50
2023-05-13T20:03:31.294Z,101428.75
2023-05-13T20:05:58.575Z,101432.69
2023-05-13T20:08:25.854Z,101436.63
2023-05-13T20:10:53.020Z,101433.41
2023-05-13T20:13:21.430Z,101434.66
2023-05-13T20:15:48.850Z,101431.56
2023-05-13T20:18:16.214Z,101437.16
2023-05-13T20:20:45.002Z,101439.38
2023-05-13T20:23:14.418Z,101442.44
2023-05-13T20:25:41.910Z,101432.34
2023-05-13T20:28:09.066Z,101437.06
2023-05-13T20:30:36.375Z,101437.38
2023-05-13T20:33:03.888Z,101440.25
2023-05-13T20:35:31.214Z,101435.31
2023-05-13T20:37:58.609Z,101434.69
2023-05-13T20:40:25.713Z,101431.38
2023-05-13T20:42:52.915Z,101439.53
2023-05-13T20:45:20.051Z,101440.75
2023-05-13T20:47:47.310Z,101434.81
2023-05-13T20:50:14.504Z,101439.56
2023-05-13T20:52:41.757Z,101438.78
2023-05-13T20:55:09.378Z,101439.00
2023-05-13T20:57:36.550Z,101437.47
2023-05-13T21:00:04.281Z,101430.50
2023-05-13T21:02:31.487Z,101437.66
2023-05-13T21:04:58.799Z,101433.44
2023-05-13T21:07:26.013Z,101430.84
2023-05-13T21:09:53.197Z,101424.88
2023-05-13T21:12:20.368Z,101424.88
2023-05-13T21:14:47.524Z,101424.25
2023-05-13T21:17:21.134Z,101426.13
2023-05-13T21:19:49.452Z,101423.69
2023-05-13T21:22:17.553Z,101427.34
2023-05-13T21:24:46.028Z,101428.59
2023-05-13T21:27:13.363Z,101425.38
2023-05-13T21:29:40.883Z,101430.00
2023-05-13T21:32:08.047Z,101425.94
2023-05-13T21:34:35.328Z,101425.16
2023-05-13T21:37:02.552Z,101424.59
2023-05-13T21:39:29.794Z,101419.50
2023-05-13T21:41:59.933Z,101423.38
2023-05-13T21:44:28.846Z,101425.34
2023-05-13T21:46:56.109Z,101420.25
2023-05-13T21:49:23.863Z,101422.13
2023-05-13T21:51:51.348Z,101421.38
2023-05-13T21:54:19.399Z,101419.59
2023-05-13T21:56:46.650Z,101422.25
2023-05-13T21:59:13.903Z,101422.25
2023-05-13T22:01:41.410Z,101423.19
2023-05-13T22:04:08.925Z,101421.47
2023-05-13T22:06:36.122Z,101423.25
2023-05-13T22:09:03.336Z,101414.56
2023-05-13T22:11:30.670Z,101420.81
2023-05-13T22:13:59.228Z,101412.22
2023-05-13T22:16:32.643Z,101410.50
2023-05-13T22:19:00.882Z,101406.13
2023-05-13T22:21:28.318Z,101405.38
2023-05-13T22:23:55.462Z,101405.56
2023-05-13T22:26:22.593Z,101399.44
2023-05-13T22:28:49.887Z,101408.31
2023-05-13T22:31:17.254Z,101409.28
2023-05-13T22:33:44.536Z,101408.50
2023-05-13T22:36:12.043Z,101406.91
2023-05-13T22:38:39.655Z,101408.88
2023-05-13T22:41:06.877Z,101404.59
2023-05-13T22:43:34.794Z,101396.75
2023-05-13T22:46:02.268Z,101403.84
2023-05-13T22:48:29.628Z,101401.38
2023-05-13T22:50:59.644Z,101400.69
2023-05-13T22:53:26.829Z,101396.34
2023-05-13T22:55:54.054Z,101402.50
2023-05-13T22:58:21.478Z,101408.00
2023-05-13T23:00:49.523Z,101400.06
2023-05-13T23:03:16.755Z,101401.06
2023-05-13T23:05:44.084Z,101403.88
2023-05-13T23:08:11.344Z,101405.78
2023-05-13T23:10:38.532Z,101398.88
2023-05-13T23:13:06.252Z,101391.03
2023-05-13T23:15:33.442Z,101400.00
2023-05-13T23:18:00.749Z,101396.69
2023-05-13T23:20:27.946Z,101391.56
2023-05-13T23:22:55.442Z,101396.09
2023-05-13T23:25:22.612Z,101394.50
2023-05-13T23:27:51.205Z,101390.31
2023-05-13T23:30:18.380Z,101396.56
2023-05-13T23:32:45.682Z,101389.81
2023-05-13T23:35:12.894Z,101391.00
2023-05-13T23:37:40.087Z,101392.03
2023-05-13T23:40:07.670Z,101383.41
2023-05-13T23:42:34.904Z,101384.53
2023-05-13T23:45:02.084Z,101386.50
2023-05-13T23:47:29.678Z,101378.72
2023-05-13T23:49:57.977Z,101388.53
2023-05-13T23:52:25.249Z,101381.63
2023-05-13T23:54:52.476Z,101380.13
2023-05-13T23:57:19.592Z,101377.56
2023-05-13T23:59:46.831Z,101374.16
